createdAt,value
2023-01-30T00:01:17.180Z,24.03
2023-01-30T00:04:02.819Z,28.50
2023-01-30T00:06:48.190Z,26.47
2023-01-30T00:09:33.690Z,27.27
2023-01-30T00:12:19.011Z,29.33
2023-01-30T00:15:05.033Z,26.30
2023-01-30T00:17:50.360Z,29.33
2023-01-30T00:20:36.209Z,25.53
2023-01-30T00:23:21.525Z,29.77
2023-01-30T00:26:07.942Z,27.50
2023-01-30T00:28:53.212Z,28.07
2023-01-30T00:31:38.848Z,28.70
2023-01-30T00:34:24.502Z,27.87
2023-01-30T00:37:09.877Z,26.77
2023-01-30T00:39:55.550Z,27.37
2023-01-30T00:42:59.717Z,30.63
2023-01-30T00:46:04.624Z,29.27
2023-01-30T00:48:49.970Z,29.83
2023-01-30T00:51:35.442Z,28.87
2023-01-30T00:54:21.064Z,29.30
2023-01-30T00:57:06.617Z,33.90
2023-01-30T00:59:52.111Z,24.43
2023-01-30T01:02:37.808Z,29.47
2023-01-30T01:05:23.119Z,29.10
2023-01-30T01:08:08.966Z,25.57
2023-01-30T01:10:54.602Z,26.37
2023-01-30T01:13:40.015Z,25.27
2023-01-30T01:16:27.356Z,29.13
2023-01-30T01:19:13.358Z,28.97
2023-01-30T01:21:58.865Z,26.43
2023-01-30T01:24:44.103Z,28.17
2023-01-30T01:27:30.038Z,27.33
2023-01-30T01:30:15.631Z,27.90
2023-01-30T01:33:01.117Z,26.47
2023-01-30T01:35:47.885Z,27.13
2023-01-30T01:38:33.815Z,29.57
2023-01-30T01:41:19.318Z,26.80
2023-01-30T01:44:06.049Z,27.53
2023-01-30T01:46:59.987Z,26.93
2023-01-30T01:49:45.284Z,32.07
2023-01-30T01:52:31.236Z,27.47
2023-01-30T01:55:17.659Z,28.63
2023-01-30T01:58:10.346Z,24.77
2023-01-30T02:00:59.136Z,27.60
2023-01-30T02:03:49.606Z,29.43
2023-01-30T02:06:37.505Z,28.43
2023-01-30T02:09:22.796Z,28.37
2023-01-30T02:12:10.185Z,25.30
2023-01-30T02:14:58.030Z,29.83
2023-01-30T02:17:43.323Z,26.57
2023-01-30T02:20:55.449Z,24.60
2023-01-30T02:24:19.250Z,25.67
2023-01-30T02:27:30.506Z,24.57
2023-01-30T02:30:40.992Z,25.37
2023-01-30T02:33:34.935Z,25.17
2023-01-30T02:36:26.402Z,30.60
2023-01-30T02:40:09.054Z,30.03
2023-01-30T02:43:19.254Z,28.63
2023-01-30T02:46:24.806Z,28.63
2023-01-30T02:49:21.223Z,27.43
2023-01-30T02:52:08.203Z,29.10
2023-01-30T02:54:53.513Z,25.70
2023-01-30T02:57:39.067Z,28.73
2023-01-30T03:00:44.788Z,29.63
2023-01-30T03:03:48.948Z,32.07
2023-01-30T03:06:58.518Z,28.87
2023-01-30T03:10:16.243Z,31.43
2023-01-30T03:13:04.551Z,30.87
2023-01-30T03:16:00.034Z,27.70
2023-01-30T03:18:46.313Z,26.97
2023-01-30T03:21:31.829Z,29.47
2023-01-30T03:24:17.834Z,28.77
2023-01-30T03:27:11.263Z,28.27
2023-01-30T03:29:56.686Z,25.73
2023-01-30T03:32:42.223Z,27.43
2023-01-30T03:35:29.207Z,27.30
2023-01-30T03:38:14.860Z,30.60
2023-01-30T03:41:00.102Z,28.27
2023-01-30T03:43:45.744Z,27.63
2023-01-30T03:46:31.225Z,28.77
2023-01-30T03:49:16.607Z,29.97
2023-01-30T03:52:02.051Z,35.70
2023-01-30T03:54:47.457Z,27.73
2023-01-30T03:57:32.999Z,28.67
2023-01-30T04:00:18.951Z,27.30
2023-01-30T04:03:04.556Z,29.07
2023-01-30T04:05:49.776Z,29.53
2023-01-30T04:08:35.459Z,27.77
2023-01-30T04:11:21.653Z,33.27
2023-01-30T04:14:07.229Z,27.90
2023-01-30T04:16:52.847Z,27.83
2023-01-30T04:19:38.329Z,26.07
2023-01-30T04:22:23.750Z,27.60
2023-01-30T04:25:09.553Z,29.10
2023-01-30T04:27:55.092Z,27.13
2023-01-30T04:30:40.671Z,26.50
2023-01-30T04:33:27.080Z,29.07
2023-01-30T04:36:12.817Z,31.37
2023-01-30T04:38:58.527Z,27.67
2023-01-30T04:41:44.094Z,29.07
2023-01-30T04:44:29.572Z,26.43
2023-01-30T04:47:14.938Z,27.80
2023-01-30T04:50:00.494Z,26.60
2023-01-30T04:52:45.854Z,31.97
2023-01-30T04:55:31.454Z,25.43
2023-01-30T04:58:19.281Z,24.07
2023-01-30T05:01:15.813Z,29.90
2023-01-30T05:04:01.881Z,28.77
2023-01-30T05:06:47.124Z,29.47
2023-01-30T05:09:32.622Z,31.73
2023-01-30T05:12:17.891Z,27.13
2023-01-30T05:15:03.547Z,29.43
2023-01-30T05:17:48.890Z,28.30
2023-01-30T05:20:34.466Z,31.53
2023-01-30T05:23:19.828Z,27.43
2023-01-30T05:26:05.747Z,27.60
2023-01-30T05:28:56.809Z,29.87
2023-01-30T05:31:42.232Z,28.20
2023-01-30T05:34:27.806Z,30.23
2023-01-30T05:37:13.295Z,29.57
2023-01-30T05:39:58.944Z,31.70
2023-01-30T05:42:44.461Z,29.50
2023-01-30T05:45:30.002Z,28.07
2023-01-30T05:48:15.540Z,26.07
2023-01-30T05:51:01.498Z,28.93
2023-01-30T05:53:47.482Z,26.13
2023-01-30T05:56:33.492Z,26.83
2023-01-30T05:59:19.016Z,29.97
2023-01-30T06:02:04.624Z,30.67
2023-01-30T06:04:50.047Z,26.80
2023-01-30T06:07:35.572Z,25.97
2023-01-30T06:10:21.123Z,29.23
2023-01-30T06:13:06.761Z,28.87
2023-01-30T06:15:53.099Z,26.33
2023-01-30T06:18:38.793Z,29.33
2023-01-30T06:21:24.147Z,28.97
2023-01-30T06:24:09.484Z,29.97
2023-01-30T06:26:54.922Z,28.73
2023-01-30T06:29:40.359Z,31.73
2023-01-30T06:32:25.911Z,28.97
2023-01-30T06:35:11.524Z,27.80
2023-01-30T06:37:57.041Z,31.70
2023-01-30T06:40:47.429Z,33.03
2023-01-30T06:43:32.770Z,31.77
2023-01-30T06:46:18.320Z,28.73
2023-01-30T06:49:03.862Z,33.17
2023-01-30T06:51:49.482Z,33.33
2023-01-30T06:54:34.931Z,31.83
2023-01-30T06:57:20.535Z,32.00
2023-01-30T07:00:07.875Z,30.73
2023-01-30T07:02:53.276Z,32.03
2023-01-30T07:05:43.143Z,28.70
2023-01-30T07:08:28.765Z,29.57
2023-01-30T07:11:14.232Z,29.73
2023-01-30T07:13:59.957Z,30.17
2023-01-30T07:16:45.234Z,27.13
2023-01-30T07:19:30.732Z,28.37
2023-01-30T07:22:16.486Z,28.53
2023-01-30T07:25:02.099Z,30.13
2023-01-30T07:28:01.972Z,28.17
2023-01-30T07:30:47.364Z,28.23
2023-01-30T07:33:32.725Z,29.93
2023-01-30T07:36:18.400Z,26.00
2023-01-30T07:39:05.078Z,25.23
2023-01-30T07:41:50.726Z,29.17
2023-01-30T07:44:37.148Z,31.17
2023-01-30T07:47:22.466Z,34.10
2023-01-30T07:50:08.720Z,28.53
2023-01-30T07:52:54.014Z,29.53
2023-01-30T07:55:39.633Z,34.43
2023-01-30T07:58:24.892Z,32.50
2023-01-30T08:01:10.483Z,28.70
2023-01-30T08:03:55.853Z,32.00
2023-01-30T08:06:41.402Z,29.90
2023-01-30T08:09:27.024Z,33.87
2023-01-30T08:12:12.501Z,28.40
2023-01-30T08:14:58.014Z,28.37
2023-01-30T08:17:43.786Z,33.43
2023-01-30T08:20:29.597Z,28.20
2023-01-30T08:23:15.131Z,29.70
2023-01-30T08:26:02.599Z,29.93
2023-01-30T08:28:48.189Z,32.90
2023-01-30T08:31:33.869Z,29.50
2023-01-30T08:34:19.300Z,34.17
2023-01-30T08:37:04.810Z,30.07
2023-01-30T08:39:50.376Z,28.10
2023-01-30T08:42:35.611Z,30.87
2023-01-30T08:45:21.215Z,31.47
2023-01-30T08:48:07.519Z,31.20
2023-01-30T08:50:56.922Z,27.60
2023-01-30T08:53:42.315Z,30.00
2023-01-30T08:56:27.801Z,31.30
2023-01-30T08:59:13.354Z,29.13
2023-01-30T09:01:58.995Z,29.67
2023-01-30T09:04:44.368Z,29.40
2023-01-30T09:07:29.957Z,30.03
2023-01-30T09:10:15.859Z,30.50
2023-01-30T09:13:01.092Z,32.23
2023-01-30T09:15:46.766Z,30.37
2023-01-30T09:18:32.199Z,32.40
2023-01-30T09:21:17.792Z,29.27
2023-01-30T09:24:03.131Z,30.97
2023-01-30T09:26:48.876Z,25.23
2023-01-30T09:29:34.703Z,26.57
2023-01-30T09:32:20.273Z,28.67
2023-01-30T09:35:05.816Z,28.43
2023-01-30T09:37:52.559Z,27.13
2023-01-30T09:41:01.940Z,29.87
2023-01-30T09:43:56.174Z,29.57
2023-01-30T09:47:06.080Z,28.30
2023-01-30T09:49:54.626Z,26.87
2023-01-30T09:53:10.345Z,29.33
2023-01-30T09:55:59.007Z,29.10
2023-01-30T09:59:18.799Z,29.87
2023-01-30T10:02:21.924Z,27.20
2023-01-30T10:05:07.983Z,29.97
2023-01-30T10:08:28.645Z,28.27
2023-01-30T10:11:52.609Z,31.10
2023-01-30T10:14:51.996Z,30.93
2023-01-30T10:17:48.844Z,29.23
2023-01-30T10:20:56.433Z,27.90
2023-01-30T10:24:00.074Z,25.60
2023-01-30T10:26:47.071Z,26.07
2023-01-30T10:29:39.838Z,28.57
2023-01-30T10:32:33.969Z,27.70
2023-01-30T10:35:26.905Z,28.25
2023-01-30T10:38:26.416Z,30.73
2023-01-30T10:41:15.149Z,29.27
2023-01-30T10:44:05.921Z,28.00
2023-01-30T10:47:17.231Z,29.00
2023-01-30T10:50:23.497Z,27.43
2023-01-30T10:53:20.351Z,28.00
2023-01-30T10:56:49.628Z,27.03
2023-01-30T10:59:50.140Z,26.20
2023-01-30T11:02:56.047Z,27.03
2023-01-30T11:05:59.726Z,27.37
2023-01-30T11:08:45.480Z,29.47
2023-01-30T11:11:34.142Z,28.13
2023-01-30T11:14:20.111Z,29.43
2023-01-30T11:17:05.604Z,35.33
2023-01-30T11:19:56.690Z,28.47
2023-01-30T11:22:50.413Z,29.53
2023-01-30T11:25:52.852Z,27.15
2023-01-30T11:28:48.514Z,29.37
2023-01-30T11:31:41.432Z,30.23
2023-01-30T11:34:27.029Z,23.63
2023-01-30T11:37:30.812Z,28.93
2023-01-30T11:40:21.465Z,29.03
2023-01-30T11:43:12.778Z,24.10
2023-01-30T11:45:59.231Z,27.70
2023-01-30T11:49:45.706Z,28.97
2023-01-30T11:52:12.448Z,26.17
2023-01-30T11:55:05.684Z,25.13
2023-01-30T11:57:54.560Z,28.30
2023-01-30T12:00:48.317Z,27.27
2023-01-30T12:03:34.599Z,26.33
2023-01-30T12:06:36.378Z,29.30
2023-01-30T12:09:40.787Z,25.07
2023-01-30T12:12:31.181Z,25.80
2023-01-30T12:15:26.894Z,22.83
2023-01-30T12:18:18.292Z,24.87
2023-01-30T12:21:15.815Z,23.87
2023-01-30T12:24:17.905Z,26.00
2023-01-30T12:27:13.315Z,27.63
2023-01-30T12:30:20.390Z,27.70
2023-01-30T12:33:10.934Z,21.40
2023-01-30T12:36:24.968Z,24.63
2023-01-30T12:39:22.713Z,25.43
2023-01-30T12:42:26.159Z,22.93
2023-01-30T12:45:24.158Z,23.93
2023-01-30T12:48:48.109Z,25.23
2023-01-30T12:51:49.499Z,21.70
2023-01-30T12:54:45.476Z,24.17
2023-01-30T12:57:40.067Z,24.70
2023-01-30T13:00:25.350Z,23.48
2023-01-30T13:03:36.499Z,24.00
2023-01-30T13:06:40.300Z,23.53
2023-01-30T13:09:53.647Z,24.43
2023-01-30T13:12:39.035Z,21.53
2023-01-30T13:15:45.248Z,21.47
2023-01-30T13:18:49.184Z,27.03
2023-01-30T13:21:51.294Z,24.23
2023-01-30T13:24:58.218Z,24.23
2023-01-30T13:27:49.830Z,27.67
2023-01-30T13:30:36.462Z,23.27
2023-01-30T13:33:28.679Z,19.67
2023-01-30T13:36:22.511Z,20.63
2023-01-30T13:42:18.543Z,21.83
2023-01-30T13:45:06.360Z,17.87
2023-01-30T13:48:33.026Z,24.50
2023-01-30T13:51:32.279Z,22.13
2023-01-30T13:55:13.798Z,20.33
2023-01-30T13:58:30.454Z,20.47
2023-01-30T14:01:16.233Z,18.33
2023-01-30T14:04:45.081Z,18.40
2023-01-30T14:07:39.672Z,19.03
2023-01-30T14:10:27.459Z,18.25
2023-01-30T14:13:15.825Z,20.07
2023-01-30T14:16:06.214Z,18.70
2023-01-30T14:18:51.559Z,18.27
2023-01-30T14:21:38.488Z,16.37
2023-01-30T14:24:27.489Z,15.73
2023-01-30T14:27:31.893Z,18.23
2023-01-30T14:30:37.342Z,17.33
2023-01-30T14:33:22.776Z,15.57
2023-01-30T14:36:14.637Z,15.10
2023-01-30T14:39:37.357Z,20.03
2023-01-30T14:42:25.824Z,16.83
2023-01-30T14:45:16.799Z,18.50
2023-01-30T14:48:40.515Z,20.20
2023-01-30T14:51:40.525Z,18.65
2023-01-30T14:54:41.150Z,17.27
2023-01-30T14:57:32.982Z,18.90
2023-01-30T15:00:20.991Z,22.00
2023-01-30T15:03:18.994Z,16.67
2023-01-30T15:06:06.797Z,18.63
2023-01-30T15:08:52.755Z,19.17
2023-01-30T15:11:39.077Z,20.70
2023-01-30T15:15:02.420Z,19.47
2023-01-30T15:18:26.960Z,21.17
2023-01-30T15:21:18.667Z,21.90
2023-01-30T15:24:34.766Z,19.37
2023-01-30T15:27:31.714Z,23.77
2023-01-30T15:30:57.281Z,23.60
2023-01-30T15:33:47.707Z,19.08
2023-01-30T15:36:36.129Z,21.37
2023-01-30T15:39:24.028Z,19.70
2023-01-30T15:42:15.216Z,17.07
2023-01-30T15:45:10.963Z,18.03
2023-01-30T15:48:10.136Z,21.27
2023-01-30T15:50:58.889Z,20.53
2023-01-30T15:53:47.353Z,19.93
2023-01-30T15:56:33.405Z,22.23
2023-01-30T15:59:35.926Z,20.63
2023-01-30T16:02:36.623Z,19.50
2023-01-30T16:05:25.495Z,20.67
2023-01-30T16:08:21.620Z,20.57
2023-01-30T16:11:07.328Z,16.30
2023-01-30T16:13:52.803Z,22.97
2023-01-30T16:16:39.744Z,18.50
2023-01-30T16:19:29.390Z,19.43
2023-01-30T16:22:18.095Z,20.33
2023-01-30T16:25:04.592Z,17.23
2023-01-30T16:27:51.925Z,20.30
2023-01-30T16:30:42.550Z,20.63
2023-01-30T16:33:36.016Z,21.53
2023-01-30T16:36:21.826Z,20.50
2023-01-30T16:39:26.810Z,17.97
2023-01-30T16:45:13.274Z,17.13
2023-01-30T16:48:33.368Z,16.07
2023-01-30T16:51:22.313Z,19.30
2023-01-30T16:54:23.215Z,22.17
2023-01-30T16:57:22.377Z,19.70
2023-01-30T17:00:22.836Z,17.00
2023-01-30T17:03:19.291Z,17.63
2023-01-30T17:06:16.262Z,17.67
2023-01-30T17:09:03.215Z,16.80
2023-01-30T17:11:48.922Z,22.87
2023-01-30T17:14:34.232Z,17.60
2023-01-30T17:17:19.891Z,18.07
2023-01-30T17:20:06.090Z,14.67
2023-01-30T17:22:57.769Z,16.20
2023-01-30T17:25:45.993Z,14.90
2023-01-30T17:28:31.245Z,16.23
2023-01-30T17:31:18.517Z,16.00
2023-01-30T17:34:03.927Z,15.80
2023-01-30T17:36:52.090Z,17.63
2023-01-30T17:39:37.650Z,17.87
2023-01-30T17:42:23.230Z,18.17
2023-01-30T17:45:09.859Z,19.63
2023-01-30T17:47:55.813Z,18.67
2023-01-30T17:50:41.675Z,20.57
2023-01-30T17:53:27.261Z,21.10
2023-01-30T17:56:19.454Z,18.80
2023-01-30T17:59:07.115Z,20.73
2023-01-30T18:01:53.185Z,19.70
2023-01-30T18:04:40.074Z,16.73
2023-01-30T18:07:28.511Z,17.23
2023-01-30T18:10:18.483Z,17.67
2023-01-30T18:13:04.105Z,17.33
2023-01-30T18:15:50.048Z,19.60
2023-01-30T18:18:35.384Z,20.17
2023-01-30T18:21:23.646Z,22.10
2023-01-30T18:24:09.247Z,19.50
2023-01-30T18:26:54.743Z,18.43
2023-01-30T18:29:40.247Z,18.47
2023-01-30T18:32:26.585Z,18.63
2023-01-30T18:35:11.932Z,21.93
2023-01-30T18:38:02.541Z,18.03
2023-01-30T18:40:48.118Z,15.23
2023-01-30T18:43:33.747Z,17.20
2023-01-30T18:46:19.529Z,15.47
2023-01-30T18:49:04.944Z,14.23
2023-01-30T18:51:50.356Z,14.57
2023-01-30T18:54:37.525Z,13.93
2023-01-30T18:57:22.799Z,14.03
2023-01-30T19:00:09.039Z,12.67
2023-01-30T19:02:54.736Z,12.87
2023-01-30T19:05:40.447Z,15.77
2023-01-30T19:08:26.625Z,17.23
2023-01-30T19:11:35.702Z,16.17
2023-01-30T19:14:20.965Z,13.37
2023-01-30T19:17:06.377Z,19.87
2023-01-30T19:19:51.822Z,16.87
2023-01-30T19:22:37.551Z,18.00
2023-01-30T19:25:23.653Z,16.63
2023-01-30T19:28:09.547Z,14.30
2023-01-30T19:30:55.268Z,12.40
2023-01-30T19:33:42.058Z,12.77
2023-01-30T19:36:32.803Z,13.40
2023-01-30T19:39:18.118Z,15.27
2023-01-30T19:42:03.715Z,13.93
2023-01-30T19:44:49.120Z,13.83
2023-01-30T19:47:34.699Z,12.50
2023-01-30T19:50:20.183Z,15.37
2023-01-30T19:53:05.505Z,11.57
2023-01-30T19:55:51.677Z,13.77
2023-01-30T19:58:37.926Z,13.87
2023-01-30T20:01:27.582Z,18.30
2023-01-30T20:04:13.125Z,18.90
2023-01-30T20:06:58.566Z,16.93
2023-01-30T20:09:43.994Z,17.50
2023-01-30T20:12:29.778Z,14.13
2023-01-30T20:15:15.104Z,17.40
2023-01-30T20:18:00.739Z,17.10
2023-01-30T20:20:46.220Z,14.70
2023-01-30T20:23:31.864Z,12.97
2023-01-30T20:26:20.548Z,18.17
2023-01-30T20:29:08.203Z,13.20
2023-01-30T20:31:54.593Z,14.70
2023-01-30T20:34:40.247Z,13.10
2023-01-30T20:37:25.900Z,12.03
2023-01-30T20:40:12.115Z,17.30
2023-01-30T20:42:58.392Z,18.30
2023-01-30T20:45:43.868Z,14.30
2023-01-30T20:48:30.235Z,16.93
2023-01-30T20:51:21.756Z,15.57
2023-01-30T20:54:09.819Z,17.10
2023-01-30T20:56:55.131Z,17.00
2023-01-30T20:59:41.772Z,20.60
2023-01-30T21:02:28.498Z,16.23
2023-01-30T21:05:13.912Z,15.77
2023-01-30T21:07:59.303Z,16.47
2023-01-30T21:10:47.183Z,17.13
2023-01-30T21:13:33.610Z,18.57
2023-01-30T21:16:21.768Z,17.93
2023-01-30T21:19:11.209Z,16.10
2023-01-30T21:22:00.940Z,16.60
2023-01-30T21:24:47.038Z,16.87
2023-01-30T21:27:32.496Z,17.50
2023-01-30T21:30:18.152Z,18.47
2023-01-30T21:33:03.377Z,16.07
2023-01-30T21:35:49.156Z,16.77
2023-01-30T21:38:55.163Z,15.53
2023-01-30T21:41:52.032Z,17.87
2023-01-30T21:44:38.032Z,17.63
2023-01-30T21:47:23.343Z,15.97
2023-01-30T21:50:09.745Z,17.93
2023-01-30T21:52:55.047Z,18.07
2023-01-30T21:55:40.424Z,17.63
2023-01-30T21:58:26.000Z,19.03
2023-01-30T22:01:11.495Z,17.70
2023-01-30T22:03:59.865Z,21.03
2023-01-30T22:06:45.289Z,17.83
2023-01-30T22:09:30.658Z,18.97
2023-01-30T22:12:16.325Z,18.83
2023-01-30T22:15:01.570Z,17.60
2023-01-30T22:17:47.937Z,17.40
2023-01-30T22:20:33.082Z,15.67
2023-01-30T22:23:18.782Z,15.87
2023-01-30T22:26:04.851Z,14.20
2023-01-30T22:28:55.243Z,16.23
2023-01-30T22:31:41.345Z,14.80
2023-01-30T22:34:26.802Z,17.27
2023-01-30T22:37:12.713Z,17.03
2023-01-30T22:39:58.235Z,16.67
2023-01-30T22:42:48.332Z,18.57
2023-01-30T22:45:37.048Z,15.40
2023-01-30T22:48:22.270Z,15.23
2023-01-30T22:51:10.333Z,14.97
2023-01-30T22:53:58.406Z,16.83
2023-01-30T22:56:46.344Z,15.27
2023-01-30T22:59:31.936Z,14.00
2023-01-30T23:02:17.330Z,17.70
2023-01-30T23:05:02.871Z,13.93
2023-01-30T23:07:48.383Z,15.67
2023-01-30T23:10:33.580Z,14.37
2023-01-30T23:13:19.697Z,12.73
2023-01-30T23:16:06.379Z,11.90
2023-01-30T23:19:03.505Z,12.43
2023-01-30T23:21:48.861Z,10.40
2023-01-30T23:24:35.476Z,11.60
2023-01-30T23:27:21.213Z,13.00
2023-01-30T23:30:07.370Z,11.67
2023-01-30T23:32:52.957Z,13.07
2023-01-30T23:35:38.913Z,12.33
2023-01-30T23:38:24.155Z,11.20
2023-01-30T23:41:12.633Z,12.73
2023-01-30T23:43:59.299Z,11.07
2023-01-30T23:46:44.817Z,13.07
2023-01-30T23:49:30.147Z,13.17
2023-01-30T23:52:15.860Z,13.10
2023-01-30T23:55:01.300Z,12.63
2023-01-30T23:57:46.950Z,12.43
